Aviation Digital Data Service (ADDS)

Output produced by METARs form (0353 UTC 20 March 2019)
found at http://www.aviationweather.gov/metar/data/
 
Forecast for: DNIB (IBADAN , NG)
Text: TAF DNIB 192140Z 2000/2106 VRB02KT 8000 FEW011
Forecast period: 0000 to 0800 UTC 20 March 2019
Forecast type: FROM: standard forecast or significant change
Winds: variable direction winds at 2 MPH (2 knots; 1.0 m/s)
Visibility: 5 miles (8 km)
Ceiling: at least 12,000 feet AGL
Clouds: few clouds at 1100 feet AGL
Weather: no significant weather forecast for this period
Text: BECMG 2008/2010 24010KT BKN013 FEW020CB
Forecast period: 0800 UTC 20 March 2019 to 0600 UTC 21 March 2019
Forecast type: BECOMING: Conditions expected to become as follows by 1000 UTC 20 March 2019
Winds: from the WSW (240 degrees) at 12 MPH (10 knots; 5.1 m/s)
Visibility: 5 miles (8 km)
Ceiling: 1300 feet AGL
Clouds: broken clouds at 1300 feet AGL
few clouds at 2000 feet AGL
Weather: no significant weather forecast for this period